createdAt,value
2017-08-03T00:02:06.281Z,21.00
2017-08-03T00:04:32.546Z,21.10
2017-08-03T00:06:59.543Z,21.00
2017-08-03T00:09:25.813Z,21.00
2017-08-03T00:11:52.069Z,20.90
2017-08-03T00:14:19.057Z,21.00
2017-08-03T00:16:45.310Z,20.90
2017-08-03T00:19:11.582Z,21.00
2017-08-03T00:21:37.862Z,21.00
2017-08-03T00:24:04.137Z,21.00
2017-08-03T00:26:30.401Z,21.00
2017-08-03T00:28:56.673Z,21.00
2017-08-03T00:31:23.661Z,21.00
2017-08-03T00:33:49.921Z,20.90
2017-08-03T00:36:16.177Z,21.00
2017-08-03T00:38:43.166Z,20.90
2017-08-03T00:41:09.412Z,20.90
2017-08-03T00:43:35.668Z,21.00
2017-08-03T00:46:01.938Z,21.00
2017-08-03T00:48:28.184Z,21.00
2017-08-03T00:50:54.449Z,21.00
2017-08-03T00:53:21.733Z,21.00
2017-08-03T00:55:47.996Z,21.00
2017-08-03T00:58:14.265Z,20.90
2017-08-03T01:00:41.266Z,20.80
2017-08-03T01:03:07.533Z,20.80
2017-08-03T01:05:33.789Z,20.80
2017-08-03T01:08:00.074Z,20.80
2017-08-03T01:10:26.340Z,20.80
2017-08-03T01:12:52.730Z,20.80
2017-08-03T01:15:19.005Z,20.80
2017-08-03T01:17:45.265Z,20.70
2017-08-03T01:20:11.537Z,20.70
2017-08-03T01:22:37.814Z,20.60
2017-08-03T01:25:05.073Z,20.70
2017-08-03T01:27:31.321Z,20.70
2017-08-03T01:29:57.572Z,20.70
2017-08-03T01:32:23.849Z,20.80
2017-08-03T01:34:50.138Z,20.90
2017-08-03T01:37:16.418Z,20.80
2017-08-03T01:39:42.677Z,20.90
2017-08-03T01:42:08.952Z,21.00
2017-08-03T01:44:35.224Z,21.00
2017-08-03T01:47:10.613Z,21.00
2017-08-03T01:49:37.643Z,21.00
2017-08-03T01:52:04.656Z,21.00
2017-08-03T01:54:30.926Z,20.90
2017-08-03T01:56:57.953Z,21.00
2017-08-03T01:59:24.252Z,21.00
2017-08-03T02:01:50.529Z,21.00
2017-08-03T02:04:17.532Z,21.00
2017-08-03T02:06:44.810Z,21.00
2017-08-03T02:09:11.091Z,21.00
2017-08-03T02:11:37.398Z,21.00
2017-08-03T02:14:03.678Z,21.10
2017-08-03T02:16:29.928Z,21.00
2017-08-03T02:18:56.177Z,21.10
2017-08-03T02:21:23.189Z,21.20
2017-08-03T02:23:49.486Z,21.20
2017-08-03T02:26:15.738Z,21.20
2017-08-03T02:28:41.999Z,21.20
2017-08-03T02:31:08.249Z,21.20
2017-08-03T02:33:34.489Z,21.10
2017-08-03T02:36:00.760Z,21.20
2017-08-03T02:38:27.005Z,21.10
2017-08-03T02:40:53.270Z,21.10
2017-08-03T02:43:19.517Z,21.10
2017-08-03T02:45:45.765Z,21.10
2017-08-03T02:48:12.040Z,21.10
2017-08-03T02:50:39.044Z,21.00
2017-08-03T02:53:05.309Z,21.00
2017-08-03T02:55:32.292Z,20.90
2017-08-03T02:57:58.551Z,20.90
2017-08-03T03:00:24.818Z,20.90
2017-08-03T03:02:51.065Z,20.80
2017-08-03T03:05:17.312Z,20.80
2017-08-03T03:07:43.596Z,20.90
2017-08-03T03:10:10.608Z,21.00
2017-08-03T03:12:36.920Z,20.90
2017-08-03T03:15:03.185Z,21.00
2017-08-03T03:17:29.777Z,21.10
2017-08-03T03:19:56.052Z,21.00
2017-08-03T03:22:22.329Z,21.00
2017-08-03T03:24:48.625Z,20.90
2017-08-03T03:27:14.913Z,20.90
2017-08-03T03:29:41.181Z,20.90
2017-08-03T03:32:08.204Z,21.00
2017-08-03T03:34:34.460Z,20.90
2017-08-03T03:37:01.477Z,20.90
2017-08-03T03:39:27.737Z,20.90
2017-08-03T03:41:54.757Z,20.90
2017-08-03T03:44:21.009Z,20.90
2017-08-03T03:46:47.993Z,20.90
2017-08-03T03:49:14.276Z,20.90
2017-08-03T03:51:41.276Z,20.80
2017-08-03T03:54:07.533Z,20.70
2017-08-03T03:56:33.798Z,20.80
2017-08-03T03:59:00.043Z,20.60
2017-08-03T04:01:26.297Z,20.60
2017-08-03T04:03:52.561Z,20.60
2017-08-03T04:06:19.565Z,20.60
2017-08-03T04:08:45.853Z,20.60
2017-08-03T04:11:12.113Z,20.60
2017-08-03T04:13:38.369Z,20.60
2017-08-03T04:16:05.673Z,20.70
2017-08-03T04:18:31.925Z,20.70
2017-08-03T04:20:58.201Z,20.80
2017-08-03T04:23:24.448Z,20.70
2017-08-03T04:25:50.705Z,20.80
2017-08-03T04:28:16.951Z,20.80
2017-08-03T04:30:43.200Z,20.90
2017-08-03T04:33:09.501Z,20.80
2017-08-03T04:35:35.770Z,21.00
2017-08-03T04:38:02.761Z,21.20
2017-08-03T04:40:29.027Z,21.10
2017-08-03T04:42:55.307Z,21.30
2017-08-03T04:45:21.597Z,21.40
2017-08-03T04:47:48.625Z,21.60
2017-08-03T04:50:14.884Z,21.60
2017-08-03T04:52:41.141Z,21.70
2017-08-03T04:55:07.390Z,21.80
2017-08-03T04:57:33.653Z,22.00
2017-08-03T04:59:59.921Z,22.10
2017-08-03T05:02:26.173Z,22.20
2017-08-03T05:04:52.425Z,22.30
2017-08-03T05:07:18.689Z,22.40
2017-08-03T05:09:44.957Z,22.30
2017-08-03T05:12:11.210Z,22.40
2017-08-03T05:14:37.471Z,22.50
2017-08-03T05:17:04.465Z,22.70
2017-08-03T05:19:30.738Z,22.60
2017-08-03T05:21:57.766Z,22.70
2017-08-03T05:24:24.045Z,22.60
2017-08-03T05:26:50.297Z,22.70
2017-08-03T05:29:16.557Z,22.80
2017-08-03T05:31:42.809Z,22.80
2017-08-03T05:34:09.085Z,23.00
2017-08-03T05:36:35.333Z,23.10
2017-08-03T05:39:01.580Z,23.20
2017-08-03T05:41:28.589Z,23.20
2017-08-03T05:43:54.833Z,23.20
2017-08-03T05:46:21.108Z,23.10
2017-08-03T05:48:47.393Z,23.10
2017-08-03T05:51:13.650Z,23.10
2017-08-03T05:53:40.645Z,22.90
2017-08-03T05:56:06.892Z,22.90
2017-08-03T05:58:33.165Z,23.00
2017-08-03T06:00:59.456Z,23.00
2017-08-03T06:03:25.705Z,23.10
2017-08-03T06:05:52.705Z,23.30
2017-08-03T06:08:18.952Z,23.30
2017-08-03T06:10:45.225Z,23.40
2017-08-03T06:13:11.481Z,23.60
2017-08-03T06:15:37.730Z,23.90
2017-08-03T06:18:04.021Z,24.10
2017-08-03T06:20:30.304Z,24.30
2017-08-03T06:22:56.581Z,24.50
2017-08-03T06:25:22.837Z,24.60
2017-08-03T06:27:49.085Z,24.70
2017-08-03T06:30:15.337Z,24.70
2017-08-03T06:32:42.337Z,24.90
2017-08-03T06:35:08.612Z,24.80
2017-08-03T06:37:35.601Z,24.90
2017-08-03T06:40:01.861Z,24.90
2017-08-03T06:42:28.133Z,25.10
2017-08-03T06:44:54.388Z,25.20
2017-08-03T06:47:20.657Z,25.30
2017-08-03T06:49:46.916Z,25.30
2017-08-03T06:52:13.160Z,25.40
2017-08-03T06:54:39.418Z,25.60
2017-08-03T06:57:05.680Z,25.70
2017-08-03T06:59:32.686Z,25.90
2017-08-03T07:01:58.947Z,25.90
2017-08-03T07:04:25.937Z,26.20
2017-08-03T07:06:52.197Z,26.10
2017-08-03T07:09:18.465Z,26.20
2017-08-03T07:11:45.495Z,26.60
2017-08-03T07:14:11.750Z,26.60
2017-08-03T07:16:38.040Z,26.80
2017-08-03T07:19:04.313Z,27.10
2017-08-03T07:21:30.574Z,27.30
2017-08-03T07:23:56.836Z,27.50
2017-08-03T07:26:23.085Z,27.70
2017-08-03T07:28:50.098Z,27.80
2017-08-03T07:31:16.354Z,27.80
2017-08-03T07:33:43.349Z,27.90
2017-08-03T07:36:09.627Z,27.80
2017-08-03T07:38:36.625Z,27.90
2017-08-03T07:41:02.882Z,27.80
2017-08-03T07:43:29.127Z,27.80
2017-08-03T07:45:56.144Z,27.90
2017-08-03T07:48:22.418Z,27.90
2017-08-03T07:50:48.678Z,28.00
2017-08-03T07:53:14.929Z,27.90
2017-08-03T07:55:41.186Z,28.20
2017-08-03T07:58:08.201Z,28.90
2017-08-03T08:00:34.497Z,28.80
2017-08-03T08:03:00.748Z,29.20
2017-08-03T08:05:27.007Z,29.50
2017-08-03T08:07:53.258Z,29.80
2017-08-03T08:10:20.262Z,30.20
2017-08-03T08:12:46.540Z,30.20
2017-08-03T08:15:12.833Z,30.30
2017-08-03T08:17:39.109Z,30.40
2017-08-03T08:20:05.359Z,30.60
2017-08-03T08:22:31.612Z,30.80
2017-08-03T08:24:57.884Z,30.80
2017-08-03T08:27:24.142Z,30.90
2017-08-03T08:29:50.401Z,31.00
2017-08-03T08:32:16.653Z,30.80
2017-08-03T08:34:42.902Z,30.90
2017-08-03T08:37:09.185Z,30.60
2017-08-03T08:39:35.453Z,30.40
2017-08-03T08:42:01.701Z,30.30
2017-08-03T08:44:27.972Z,30.50
2017-08-03T08:46:54.225Z,30.50
2017-08-03T08:49:21.252Z,30.70
2017-08-03T08:51:47.509Z,30.70
2017-08-03T08:54:14.507Z,30.60
2017-08-03T08:56:40.757Z,30.60
2017-08-03T08:59:07.016Z,30.60
2017-08-03T09:01:33.286Z,30.60
2017-08-03T09:03:59.533Z,30.70
2017-08-03T09:06:25.801Z,30.70
2017-08-03T09:08:52.085Z,30.60
2017-08-03T09:11:18.334Z,30.70
2017-08-03T09:13:44.625Z,30.80
2017-08-03T09:16:10.881Z,30.90
2017-08-03T09:18:37.141Z,31.00
2017-08-03T09:21:04.130Z,31.20
2017-08-03T09:23:30.385Z,31.10
2017-08-03T09:25:56.682Z,31.30
2017-08-03T09:28:22.943Z,31.70
2017-08-03T09:30:49.201Z,32.10
2017-08-03T09:33:15.441Z,32.40
2017-08-03T09:35:41.689Z,32.60
2017-08-03T09:38:07.968Z,32.60
2017-08-03T09:40:34.229Z,32.70
2017-08-03T09:43:00.493Z,32.60
2017-08-03T09:45:26.741Z,32.60
2017-08-03T09:47:53.002Z,32.60
2017-08-03T09:50:19.397Z,32.70
2017-08-03T09:52:45.650Z,33.10
2017-08-03T09:55:12.665Z,33.70
2017-08-03T09:57:38.916Z,33.70
2017-08-03T10:00:06.961Z,32.50
2017-08-03T10:02:33.242Z,32.50
2017-08-03T10:05:00.542Z,32.20
2017-08-03T10:07:26.812Z,32.10
2017-08-03T10:09:53.078Z,32.00
2017-08-03T10:12:19.333Z,31.90
2017-08-03T10:14:45.594Z,31.90
2017-08-03T10:17:12.586Z,31.90
2017-08-03T10:19:38.877Z,31.90
2017-08-03T10:22:05.146Z,31.90
2017-08-03T10:24:31.411Z,32.00
2017-08-03T10:26:57.693Z,31.70
2017-08-03T10:29:23.949Z,31.50
2017-08-03T10:31:50.214Z,31.60
2017-08-03T10:34:17.209Z,31.00
2017-08-03T10:36:43.461Z,30.90
2017-08-03T10:39:09.741Z,30.80
2017-08-03T10:41:35.990Z,30.80
2017-08-03T10:44:02.237Z,30.80
2017-08-03T10:46:28.493Z,30.80
2017-08-03T10:48:55.485Z,30.60
2017-08-03T10:51:21.765Z,30.60
2017-08-03T10:53:48.757Z,30.40
2017-08-03T10:56:15.017Z,30.30
2017-08-03T10:58:41.270Z,30.70
2017-08-03T11:01:08.293Z,30.70
2017-08-03T11:03:34.568Z,30.70
2017-08-03T11:06:00.822Z,30.50
2017-08-03T11:08:27.090Z,30.40
2017-08-03T11:10:53.353Z,30.50
2017-08-03T11:13:19.607Z,30.70
2017-08-03T11:15:45.879Z,30.90
2017-08-03T11:18:12.145Z,31.30
2017-08-03T11:20:38.396Z,31.40
2017-08-03T11:23:04.657Z,31.80
2017-08-03T11:25:31.917Z,31.90
2017-08-03T11:27:58.190Z,32.20
2017-08-03T11:30:24.465Z,32.50
2017-08-03T11:32:50.704Z,33.10
2017-08-03T11:35:16.952Z,33.70
2017-08-03T11:37:43.213Z,34.00
2017-08-03T11:40:09.470Z,34.20
2017-08-03T11:42:35.709Z,34.40
2017-08-03T11:45:01.981Z,34.40
2017-08-03T11:47:28.236Z,34.70
2017-08-03T11:49:54.485Z,34.80
2017-08-03T11:52:20.757Z,34.70
2017-08-03T11:54:47.009Z,34.60
2017-08-03T11:57:13.270Z,34.60
2017-08-03T11:59:39.581Z,34.40
2017-08-03T12:02:05.837Z,33.90
2017-08-03T12:04:32.132Z,33.60
2017-08-03T12:06:58.390Z,33.20
2017-08-03T12:09:24.649Z,33.30
2017-08-03T12:11:50.897Z,33.20
2017-08-03T12:14:17.159Z,33.00
2017-08-03T12:16:43.444Z,32.90
2017-08-03T12:19:09.709Z,32.80
2017-08-03T12:21:35.981Z,32.80
2017-08-03T12:24:02.254Z,32.50
2017-08-03T12:26:28.497Z,32.40
2017-08-03T12:28:54.768Z,32.70
2017-08-03T12:31:21.025Z,32.80
2017-08-03T12:33:47.273Z,32.60
2017-08-03T12:36:13.520Z,32.60
2017-08-03T12:38:39.765Z,32.50
2017-08-03T12:41:06.057Z,32.60
2017-08-03T12:43:32.309Z,32.60
2017-08-03T12:45:58.561Z,33.10
2017-08-03T12:48:25.560Z,34.60
2017-08-03T12:50:51.853Z,34.50
2017-08-03T12:53:18.140Z,35.20
2017-08-03T12:55:44.380Z,35.30
2017-08-03T12:58:10.625Z,35.40
2017-08-03T13:00:37.617Z,36.00
2017-08-03T13:03:03.876Z,35.90
2017-08-03T13:05:30.143Z,36.20
2017-08-03T13:07:56.393Z,36.20
2017-08-03T13:10:22.637Z,36.30
2017-08-03T13:12:49.919Z,36.60
2017-08-03T13:15:16.165Z,36.20
2017-08-03T13:17:43.184Z,36.00
2017-08-03T13:20:09.449Z,35.90
2017-08-03T13:22:36.441Z,36.30
2017-08-03T13:25:02.722Z,36.20
2017-08-03T13:27:29.004Z,36.50
2017-08-03T13:29:56.297Z,36.60
2017-08-03T13:32:23.301Z,37.20
2017-08-03T13:34:49.545Z,37.10
2017-08-03T13:37:15.797Z,37.50
2017-08-03T13:39:42.792Z,37.90
2017-08-03T13:42:09.073Z,37.90
2017-08-03T13:44:36.079Z,37.60
2017-08-03T13:47:02.346Z,37.60
2017-08-03T13:49:29.343Z,36.70
2017-08-03T13:51:55.597Z,36.60
2017-08-03T13:54:21.863Z,35.40
2017-08-03T13:56:48.120Z,34.60
2017-08-03T13:59:14.381Z,34.30
2017-08-03T14:01:40.629Z,34.00
2017-08-03T14:04:08.647Z,33.00
2017-08-03T14:06:34.929Z,32.90
2017-08-03T14:09:01.993Z,32.60
2017-08-03T14:11:28.258Z,32.60
2017-08-03T14:13:54.523Z,32.40
2017-08-03T14:16:20.777Z,32.20
2017-08-03T14:18:47.041Z,32.00
2017-08-03T14:21:13.295Z,31.80
2017-08-03T14:23:40.333Z,31.70
2017-08-03T14:26:06.587Z,31.70
2017-08-03T14:28:32.842Z,31.60
2017-08-03T14:30:59.104Z,31.60
2017-08-03T14:33:26.385Z,31.90
2017-08-03T14:35:52.641Z,32.60
2017-08-03T14:38:18.897Z,34.40
2017-08-03T14:40:45.157Z,35.90
2017-08-03T14:43:11.437Z,36.50
2017-08-03T14:45:37.693Z,37.20
2017-08-03T14:48:04.007Z,38.00
2017-08-03T14:50:30.269Z,38.30
2017-08-03T14:52:56.898Z,39.00
2017-08-03T14:55:23.210Z,39.20
2017-08-03T14:57:49.457Z,38.50
2017-08-03T15:00:15.721Z,37.70
2017-08-03T15:02:41.986Z,36.60
2017-08-03T15:05:08.232Z,35.90
2017-08-03T15:07:34.509Z,35.90
2017-08-03T15:10:00.773Z,37.00
2017-08-03T15:12:27.053Z,37.40
2017-08-03T15:14:53.334Z,37.00
2017-08-03T15:17:19.589Z,36.40
2017-08-03T15:19:45.854Z,36.30
2017-08-03T15:22:12.096Z,36.30
2017-08-03T15:24:39.121Z,36.80
2017-08-03T15:27:05.383Z,36.90
2017-08-03T15:29:31.642Z,36.90
2017-08-03T15:31:57.901Z,36.70
2017-08-03T15:34:24.162Z,36.40
2017-08-03T15:36:50.421Z,36.30
2017-08-03T15:39:17.421Z,34.90
2017-08-03T15:41:43.677Z,34.90
2017-08-03T15:44:09.926Z,34.20
2017-08-03T15:46:36.193Z,33.70
2017-08-03T15:49:02.457Z,33.60
2017-08-03T15:51:28.714Z,33.30
2017-08-03T15:53:54.965Z,33.10
2017-08-03T15:56:21.214Z,32.80
2017-08-03T15:58:48.215Z,32.30
2017-08-03T16:01:14.470Z,32.30
2017-08-03T16:03:40.749Z,32.10
2017-08-03T16:06:07.022Z,32.10
2017-08-03T16:08:33.313Z,32.00
2017-08-03T16:10:59.570Z,32.00
2017-08-03T16:13:25.839Z,32.00
2017-08-03T16:15:52.114Z,32.00
2017-08-03T16:18:18.377Z,32.10
2017-08-03T16:20:44.636Z,32.00
2017-08-03T16:23:10.944Z,32.00
2017-08-03T16:25:37.206Z,31.90
2017-08-03T16:28:03.486Z,31.80
2017-08-03T16:30:29.743Z,31.50
2017-08-03T16:32:56.762Z,31.00
2017-08-03T16:35:23.013Z,31.00
2017-08-03T16:37:50.034Z,30.30
2017-08-03T16:40:16.310Z,30.30
2017-08-03T16:42:42.587Z,30.10
2017-08-03T16:45:08.853Z,30.20
2017-08-03T16:47:35.101Z,30.30
2017-08-03T16:50:01.389Z,30.30
2017-08-03T16:52:27.645Z,30.10
2017-08-03T16:54:54.628Z,30.10
2017-08-03T16:57:20.889Z,30.00
2017-08-03T16:59:47.155Z,30.50
2017-08-03T17:02:13.425Z,31.60
2017-08-03T17:04:39.677Z,32.00
2017-08-03T17:07:05.954Z,32.30
2017-08-03T17:09:32.217Z,33.00
2017-08-03T17:11:58.470Z,33.50
2017-08-03T17:14:24.721Z,33.60
2017-08-03T17:16:51.023Z,33.60
2017-08-03T17:19:17.305Z,33.80
2017-08-03T17:21:43.568Z,34.10
2017-08-03T17:24:09.851Z,34.10
2017-08-03T17:26:36.106Z,33.80
2017-08-03T17:29:02.365Z,33.60
2017-08-03T17:31:29.369Z,32.60
2017-08-03T17:33:55.665Z,32.60
2017-08-03T17:36:21.945Z,32.30
2017-08-03T17:38:48.204Z,32.20
2017-08-03T17:41:15.226Z,31.40
2017-08-03T17:43:41.489Z,31.40
2017-08-03T17:46:08.481Z,30.20
2017-08-03T17:48:34.756Z,30.10
2017-08-03T17:51:01.757Z,28.90
2017-08-03T17:53:28.026Z,28.90
2017-08-03T17:55:55.021Z,28.10
2017-08-03T17:58:21.285Z,28.10
2017-08-03T18:00:47.537Z,27.90
2017-08-03T18:03:14.535Z,27.40
2017-08-03T18:05:40.796Z,27.40
2017-08-03T18:08:07.115Z,27.30
2017-08-03T18:10:33.396Z,27.20
2017-08-03T18:12:59.678Z,27.00
2017-08-03T18:15:26.933Z,26.70
2017-08-03T18:17:53.185Z,26.60
2017-08-03T18:20:21.172Z,26.50
2017-08-03T18:22:48.457Z,26.50
2017-08-03T18:25:14.697Z,26.50
2017-08-03T18:27:40.972Z,26.60
2017-08-03T18:30:07.281Z,26.70
2017-08-03T18:32:34.273Z,26.10
2017-08-03T18:35:00.524Z,26.00
2017-08-03T18:37:26.937Z,26.00
2017-08-03T18:39:53.204Z,25.90
2017-08-03T18:42:22.051Z,25.30
2017-08-03T18:44:48.321Z,25.30
2017-08-03T18:47:14.650Z,25.30
2017-08-03T18:49:40.917Z,25.20
2017-08-03T18:52:07.197Z,25.30
2017-08-03T18:54:33.469Z,25.20
2017-08-03T18:56:59.741Z,25.10
2017-08-03T18:59:26.056Z,25.00
2017-08-03T19:01:52.370Z,24.80
2017-08-03T19:04:18.686Z,24.70
2017-08-03T19:06:45.780Z,24.80
2017-08-03T19:09:12.053Z,24.70
2017-08-03T19:11:38.328Z,24.70
2017-08-03T19:14:04.679Z,24.40
2017-08-03T19:16:31.010Z,24.50
2017-08-03T19:18:57.330Z,24.60
2017-08-03T19:21:23.595Z,24.70
2017-08-03T19:23:50.643Z,24.80
2017-08-03T19:26:17.706Z,24.80
2017-08-03T19:28:44.033Z,24.80
2017-08-03T19:31:11.022Z,24.90
2017-08-03T19:33:37.285Z,24.90
2017-08-03T19:36:04.568Z,24.90
2017-08-03T19:38:30.822Z,24.90
2017-08-03T19:40:57.077Z,24.90
2017-08-03T19:43:23.354Z,24.80
2017-08-03T19:45:49.632Z,24.80
2017-08-03T19:48:15.897Z,24.80
2017-08-03T19:50:42.889Z,24.40
2017-08-03T19:53:09.140Z,24.40
2017-08-03T19:55:35.389Z,24.40
2017-08-03T19:58:02.477Z,24.50
2017-08-03T20:00:28.772Z,24.50
2017-08-03T20:02:55.824Z,24.40
2017-08-03T20:05:34.011Z,24.40
2017-08-03T20:08:01.064Z,24.40
2017-08-03T20:10:28.089Z,24.30
2017-08-03T20:13:00.441Z,24.30
2017-08-03T20:15:26.700Z,24.40
2017-08-03T20:17:52.994Z,24.40
2017-08-03T20:20:19.284Z,24.30
2017-08-03T20:22:46.277Z,24.40
2017-08-03T20:25:12.561Z,24.40
2017-08-03T20:27:39.693Z,24.30
2017-08-03T20:30:05.965Z,24.20
2017-08-03T20:32:32.212Z,24.10
2017-08-03T20:34:58.465Z,24.10
2017-08-03T20:37:25.754Z,24.10
2017-08-03T20:39:52.039Z,24.10
2017-08-03T20:42:18.311Z,24.10
2017-08-03T20:44:45.314Z,24.00
2017-08-03T20:47:11.584Z,23.90
2017-08-03T20:49:37.832Z,24.00
2017-08-03T20:52:04.084Z,24.10
2017-08-03T20:54:30.364Z,24.10
2017-08-03T20:56:56.613Z,24.20
2017-08-03T20:59:22.869Z,24.10
2017-08-03T21:01:49.120Z,23.90
2017-08-03T21:04:15.370Z,23.70
2017-08-03T21:06:42.356Z,23.60
2017-08-03T21:09:09.746Z,23.50
2017-08-03T21:11:36.009Z,23.60
2017-08-03T21:14:02.269Z,23.70
2017-08-03T21:16:28.522Z,23.70
2017-08-03T21:18:55.800Z,23.70
2017-08-03T21:21:22.797Z,23.70
2017-08-03T21:23:49.083Z,23.60
2017-08-03T21:26:16.068Z,23.60
2017-08-03T21:28:42.321Z,23.60
2017-08-03T21:31:08.568Z,23.60
2017-08-03T21:33:35.874Z,23.50
2017-08-03T21:36:02.133Z,23.30
2017-08-03T21:38:28.376Z,23.30
2017-08-03T21:40:54.680Z,23.20
2017-08-03T21:43:21.970Z,23.20
2017-08-03T21:45:48.968Z,23.40
2017-08-03T21:48:15.228Z,23.40
2017-08-03T21:50:41.485Z,23.40
2017-08-03T21:53:08.472Z,23.40
2017-08-03T21:55:34.729Z,23.40
2017-08-03T21:58:01.001Z,23.40
2017-08-03T22:00:39.550Z,23.50
2017-08-03T22:03:05.850Z,23.40
2017-08-03T22:05:32.106Z,23.50
2017-08-03T22:07:58.357Z,23.50
2017-08-03T22:10:24.608Z,23.50
2017-08-03T22:12:52.625Z,23.50
2017-08-03T22:15:18.881Z,23.40
2017-08-03T22:17:45.133Z,23.60
2017-08-03T22:20:12.125Z,23.30
2017-08-03T22:22:38.370Z,23.20
2017-08-03T22:25:04.640Z,23.30
2017-08-03T22:27:31.628Z,23.30
2017-08-03T22:29:57.877Z,23.30
2017-08-03T22:32:24.124Z,23.30
2017-08-03T22:34:50.369Z,23.40
2017-08-03T22:37:17.369Z,23.30
2017-08-03T22:39:43.637Z,23.30
2017-08-03T22:42:09.897Z,23.40
2017-08-03T22:44:36.153Z,23.40
2017-08-03T22:47:02.430Z,23.40
2017-08-03T22:49:29.428Z,23.30
2017-08-03T22:51:55.677Z,23.30
2017-08-03T22:54:21.945Z,23.30
2017-08-03T22:56:48.184Z,23.30
2017-08-03T22:59:14.465Z,23.20
2017-08-03T23:01:40.732Z,23.20
2017-08-03T23:04:06.997Z,23.20
2017-08-03T23:06:33.256Z,23.10
2017-08-03T23:08:59.521Z,23.10
2017-08-03T23:11:25.793Z,23.10
2017-08-03T23:13:52.045Z,23.00
2017-08-03T23:16:18.309Z,23.00
2017-08-03T23:18:44.585Z,22.90
2017-08-03T23:21:10.861Z,23.00
2017-08-03T23:23:37.137Z,23.00
2017-08-03T23:26:03.393Z,23.00
2017-08-03T23:28:29.664Z,22.90
2017-08-03T23:30:55.908Z,22.80
2017-08-03T23:33:22.161Z,22.80
2017-08-03T23:35:48.413Z,22.70
2017-08-03T23:38:15.414Z,22.60
2017-08-03T23:40:41.686Z,22.60
2017-08-03T23:43:07.945Z,22.70
2017-08-03T23:45:34.210Z,22.60
2017-08-03T23:48:00.493Z,22.70
2017-08-03T23:50:26.747Z,22.70
2017-08-03T23:52:53.012Z,22.80
2017-08-03T23:55:19.272Z,22.90
2017-08-03T23:57:46.297Z,23.00
